createdAt,value
2022-12-03T00:00:12.917Z,12.03
2022-12-03T00:02:39.986Z,12.83
2022-12-03T00:05:06.705Z,11.40
2022-12-03T00:07:33.078Z,11.53
2022-12-03T00:09:59.493Z,11.90
2022-12-03T00:12:25.819Z,11.07
2022-12-03T00:14:52.428Z,11.30
2022-12-03T00:17:18.759Z,11.70
2022-12-03T00:19:45.168Z,10.13
2022-12-03T00:22:12.814Z,12.40
2022-12-03T00:24:39.361Z,10.50
2022-12-03T00:27:05.819Z,11.43
2022-12-03T00:29:32.249Z,11.80
2022-12-03T00:31:58.692Z,11.70
2022-12-03T00:34:25.050Z,12.37
2022-12-03T00:36:51.378Z,12.33
2022-12-03T00:39:17.732Z,11.63
2022-12-03T00:41:44.069Z,10.50
2022-12-03T00:44:11.849Z,12.13
2022-12-03T00:46:38.302Z,11.50
2022-12-03T00:49:04.819Z,11.70
2022-12-03T00:51:31.141Z,10.73
2022-12-03T00:53:57.569Z,11.60
2022-12-03T00:56:23.915Z,12.07
2022-12-03T00:58:50.400Z,12.10
2022-12-03T01:01:16.912Z,11.13
2022-12-03T01:03:43.309Z,11.50
2022-12-03T01:06:09.711Z,11.60
2022-12-03T01:08:36.128Z,10.80
2022-12-03T01:11:02.449Z,10.97
2022-12-03T01:13:28.947Z,11.70
2022-12-03T01:15:55.364Z,11.97
2022-12-03T01:18:21.774Z,12.07
2022-12-03T01:20:48.133Z,11.17
2022-12-03T01:23:14.459Z,12.13
2022-12-03T01:25:41.085Z,12.87
2022-12-03T01:28:07.411Z,11.47
2022-12-03T01:30:53.798Z,11.03
2022-12-03T01:33:20.241Z,12.10
2022-12-03T01:35:46.608Z,10.63
2022-12-03T01:38:12.941Z,10.97
2022-12-03T01:40:39.346Z,11.53
2022-12-03T01:43:05.686Z,10.30
2022-12-03T01:45:32.132Z,12.20
2022-12-03T01:47:58.507Z,11.37
2022-12-03T01:50:31.775Z,11.47
2022-12-03T01:53:01.454Z,11.20
2022-12-03T01:55:28.586Z,12.50
2022-12-03T01:57:58.901Z,11.70
2022-12-03T02:00:29.340Z,11.03
2022-12-03T02:03:07.442Z,11.73
2022-12-03T02:05:34.324Z,10.90
2022-12-03T02:08:01.064Z,10.93
2022-12-03T02:10:32.049Z,13.13
2022-12-03T02:13:02.948Z,11.47
2022-12-03T02:15:29.539Z,11.80
2022-12-03T02:17:56.289Z,11.03
2022-12-03T02:20:22.910Z,11.93
2022-12-03T02:23:10.593Z,12.23
2022-12-03T02:25:37.839Z,12.43
2022-12-03T02:28:05.874Z,10.83
2022-12-03T02:30:32.579Z,11.87
2022-12-03T02:32:59.571Z,12.17
2022-12-03T02:35:30.396Z,12.00
2022-12-03T02:38:02.159Z,12.27
2022-12-03T02:40:32.400Z,12.20
2022-12-03T02:43:01.042Z,11.60
2022-12-03T02:45:30.839Z,12.57
2022-12-03T02:48:10.163Z,12.60
2022-12-03T02:50:40.718Z,12.53
2022-12-03T02:53:12.669Z,12.43
2022-12-03T02:55:40.259Z,13.30
2022-12-03T02:58:07.162Z,13.73
2022-12-03T03:00:35.571Z,12.07
2022-12-03T03:03:04.222Z,11.97
2022-12-03T03:05:31.487Z,12.53
2022-12-03T03:07:59.333Z,13.57
2022-12-03T03:10:26.987Z,12.77
2022-12-03T03:12:55.347Z,12.60
2022-12-03T03:15:23.285Z,10.87
2022-12-03T03:17:49.799Z,13.20
2022-12-03T03:20:16.361Z,11.63
2022-12-03T03:22:43.434Z,12.23
2022-12-03T03:25:15.277Z,13.43
2022-12-03T03:27:42.108Z,15.20
2022-12-03T03:30:10.021Z,12.40
2022-12-03T03:32:38.191Z,11.90
2022-12-03T03:35:05.654Z,14.30
2022-12-03T03:37:32.107Z,13.90
2022-12-03T03:39:58.479Z,12.47
2022-12-03T03:42:24.872Z,11.73
2022-12-03T03:44:51.733Z,12.40
2022-12-03T03:47:19.314Z,14.07
2022-12-03T03:49:47.870Z,13.00
2022-12-03T03:52:14.247Z,12.27
2022-12-03T03:54:40.648Z,13.10
2022-12-03T03:57:07.303Z,12.30
2022-12-03T03:59:33.670Z,10.83
2022-12-03T04:01:59.987Z,14.50
2022-12-03T04:04:28.717Z,13.20
2022-12-03T04:06:55.132Z,14.07
2022-12-03T04:09:21.515Z,13.57
2022-12-03T04:12:06.164Z,12.50
2022-12-03T04:14:32.539Z,13.03
2022-12-03T04:16:58.929Z,12.80
2022-12-03T04:19:25.307Z,14.07
2022-12-03T04:22:10.077Z,13.27
2022-12-03T04:24:36.462Z,13.20
2022-12-03T04:27:21.295Z,13.23
2022-12-03T04:29:47.689Z,13.60
2022-12-03T04:32:32.620Z,11.93
2022-12-03T04:35:17.382Z,12.33
2022-12-03T04:37:43.794Z,13.57
2022-12-03T04:40:30.332Z,12.57
2022-12-03T04:42:56.669Z,13.80
2022-12-03T04:45:23.029Z,13.80
2022-12-03T04:47:49.379Z,13.63
2022-12-03T04:50:15.748Z,11.93
2022-12-03T04:52:42.075Z,12.37
2022-12-03T04:55:08.685Z,11.83
2022-12-03T04:57:35.016Z,14.40
2022-12-03T05:00:01.369Z,12.90
2022-12-03T05:02:27.750Z,13.70
2022-12-03T05:04:54.399Z,13.03
2022-12-03T05:07:20.972Z,15.17
2022-12-03T05:09:47.375Z,12.73
2022-12-03T05:12:13.706Z,12.33
2022-12-03T05:14:40.066Z,12.87
2022-12-03T05:17:06.477Z,12.80
2022-12-03T05:19:51.979Z,13.83
2022-12-03T05:22:18.301Z,12.60
2022-12-03T05:24:44.651Z,13.43
2022-12-03T05:27:10.997Z,13.03
2022-12-03T05:29:37.399Z,13.20
2022-12-03T05:32:04.437Z,12.80
2022-12-03T05:34:30.753Z,12.70
2022-12-03T05:36:57.097Z,13.70
2022-12-03T05:39:23.464Z,12.07
2022-12-03T05:42:08.391Z,13.83
2022-12-03T05:44:34.715Z,14.70
2022-12-03T05:47:01.475Z,15.57
2022-12-03T05:49:27.794Z,13.97
2022-12-03T05:51:58.501Z,13.20
2022-12-03T05:54:25.262Z,13.57
2022-12-03T05:56:51.614Z,14.17
2022-12-03T05:59:17.940Z,13.00
2022-12-03T06:01:44.305Z,13.27
2022-12-03T06:04:10.652Z,14.17
2022-12-03T06:06:37.013Z,13.60
2022-12-03T06:09:03.872Z,13.30
2022-12-03T06:11:30.333Z,12.70
2022-12-03T06:13:56.658Z,11.70
2022-12-03T06:16:23.067Z,13.33
2022-12-03T06:18:49.443Z,12.00
2022-12-03T06:21:15.899Z,14.47
2022-12-03T06:23:44.606Z,12.93
2022-12-03T06:26:12.022Z,12.77
2022-12-03T06:28:38.363Z,13.80
2022-12-03T06:31:05.277Z,13.50
2022-12-03T06:33:46.914Z,13.00
2022-12-03T06:36:13.294Z,12.63
2022-12-03T06:38:39.613Z,13.40
2022-12-03T06:41:06.349Z,13.03
2022-12-03T06:43:32.681Z,13.70
2022-12-03T06:45:59.147Z,12.30
2022-12-03T06:48:25.507Z,13.20
2022-12-03T06:50:51.853Z,12.53
2022-12-03T06:53:18.182Z,13.17
2022-12-03T06:55:44.636Z,12.97
2022-12-03T06:58:10.953Z,13.00
2022-12-03T07:00:37.328Z,12.70
2022-12-03T07:03:03.785Z,13.20
2022-12-03T07:05:30.236Z,13.40
2022-12-03T07:07:56.967Z,12.23
2022-12-03T07:10:23.359Z,14.50
2022-12-03T07:12:49.682Z,13.43
2022-12-03T07:15:16.106Z,14.30
2022-12-03T07:17:42.508Z,13.33
2022-12-03T07:20:09.725Z,13.77
2022-12-03T07:22:36.120Z,13.93
2022-12-03T07:25:02.733Z,14.00
2022-12-03T07:27:29.187Z,14.73
2022-12-03T07:29:55.539Z,13.27
2022-12-03T07:32:21.895Z,13.63
2022-12-03T07:34:48.240Z,15.80
2022-12-03T07:37:18.622Z,13.67
2022-12-03T07:39:47.859Z,13.83
2022-12-03T07:42:14.221Z,13.90
2022-12-03T07:44:40.550Z,14.40
2022-12-03T07:47:06.991Z,13.67
2022-12-03T07:49:33.377Z,13.60
2022-12-03T07:51:59.740Z,13.17
2022-12-03T07:54:26.151Z,14.60
2022-12-03T07:56:55.509Z,13.80
2022-12-03T07:59:26.031Z,13.20
2022-12-03T08:01:52.755Z,14.80
2022-12-03T08:04:21.035Z,15.27
2022-12-03T08:06:48.667Z,13.87
2022-12-03T08:09:16.405Z,15.47
2022-12-03T08:11:45.116Z,14.77
2022-12-03T08:14:13.584Z,15.10
2022-12-03T08:16:41.861Z,15.40
2022-12-03T08:19:11.161Z,14.97
2022-12-03T08:21:38.485Z,14.77
2022-12-03T08:24:16.623Z,15.50
2022-12-03T08:26:44.542Z,14.80
2022-12-03T08:29:13.880Z,13.80
2022-12-03T08:31:41.709Z,14.63
2022-12-03T08:34:22.652Z,15.20
2022-12-03T08:37:01.449Z,15.50
2022-12-03T08:39:43.490Z,14.83
2022-12-03T08:42:36.947Z,14.23
2022-12-03T08:45:41.029Z,15.20
2022-12-03T08:48:19.195Z,15.83
2022-12-03T08:50:45.603Z,14.23
2022-12-03T08:53:27.549Z,15.20
2022-12-03T08:56:02.567Z,13.77
2022-12-03T08:58:38.123Z,15.97
2022-12-03T09:01:10.474Z,15.83
2022-12-03T09:03:39.575Z,14.57
2022-12-03T09:06:06.297Z,16.43
2022-12-03T09:08:32.617Z,15.60
2022-12-03T09:10:59.057Z,15.70
2022-12-03T09:13:25.382Z,14.60
2022-12-03T09:15:51.745Z,14.67
2022-12-03T09:18:18.068Z,15.60
2022-12-03T09:20:44.445Z,16.97
2022-12-03T09:23:10.814Z,13.87
2022-12-03T09:25:37.165Z,15.30
2022-12-03T09:28:03.592Z,15.37
2022-12-03T09:30:29.922Z,15.23
2022-12-03T09:32:56.501Z,14.87
2022-12-03T09:35:23.037Z,14.23
2022-12-03T09:37:49.393Z,14.00
2022-12-03T09:40:15.886Z,13.77
2022-12-03T09:42:42.282Z,16.33
2022-12-03T09:45:12.187Z,15.67
2022-12-03T09:47:45.196Z,14.47
2022-12-03T09:50:18.836Z,14.70
2022-12-03T09:52:45.527Z,14.83
2022-12-03T09:55:16.413Z,16.40
2022-12-03T09:57:42.892Z,15.83
2022-12-03T10:00:26.464Z,16.57
2022-12-03T10:02:56.106Z,15.13
2022-12-03T10:05:22.651Z,14.93
2022-12-03T10:07:50.937Z,14.50
2022-12-03T10:10:25.069Z,13.77
2022-12-03T10:12:52.410Z,15.07
2022-12-03T10:15:22.732Z,15.20
2022-12-03T10:17:51.746Z,13.70
2022-12-03T10:20:20.083Z,14.63
2022-12-03T10:22:48.657Z,14.97
2022-12-03T10:25:21.499Z,14.47
2022-12-03T10:27:58.067Z,13.17
2022-12-03T10:30:27.919Z,14.57
2022-12-03T10:32:56.830Z,14.53
2022-12-03T10:35:38.038Z,12.57
2022-12-03T10:38:06.794Z,13.40
2022-12-03T10:40:38.245Z,14.63
2022-12-03T10:43:19.925Z,13.10
2022-12-03T10:46:02.000Z,13.63
2022-12-03T10:48:30.343Z,13.07
2022-12-03T10:51:18.185Z,13.90
2022-12-03T10:53:44.612Z,14.50
2022-12-03T10:56:18.145Z,13.03
2022-12-03T10:58:44.529Z,13.00
2022-12-03T11:01:20.184Z,10.53
2022-12-03T11:03:47.574Z,12.53
2022-12-03T11:06:16.423Z,12.80
2022-12-03T11:08:51.581Z,10.60
2022-12-03T11:11:23.988Z,12.57
2022-12-03T11:13:55.697Z,11.77
2022-12-03T11:16:41.978Z,12.40
2022-12-03T11:19:38.040Z,11.80
2022-12-03T11:22:04.759Z,11.13
2022-12-03T11:24:32.956Z,11.40
2022-12-03T11:26:59.282Z,10.83
2022-12-03T11:29:48.845Z,10.50
2022-12-03T11:32:43.265Z,13.07
2022-12-03T11:35:12.722Z,12.00
2022-12-03T11:37:39.078Z,12.10
2022-12-03T11:40:25.996Z,12.23
2022-12-03T11:42:52.657Z,12.73
2022-12-03T11:45:30.801Z,12.60
2022-12-03T11:48:05.631Z,11.90
2022-12-03T11:50:39.062Z,12.20
2022-12-03T11:53:27.115Z,13.33
2022-12-03T11:56:06.214Z,12.67
2022-12-03T11:58:33.448Z,12.73
2022-12-03T12:01:02.599Z,13.10
2022-12-03T12:03:33.392Z,11.20
2022-12-03T12:06:11.519Z,14.40
2022-12-03T12:08:56.083Z,10.80
2022-12-03T12:11:33.846Z,14.33
2022-12-03T12:14:12.012Z,12.60
2022-12-03T12:16:50.292Z,14.17
2022-12-03T12:19:33.380Z,12.20
2022-12-03T12:22:12.934Z,12.73
2022-12-03T12:24:48.139Z,12.03
2022-12-03T12:27:22.213Z,11.53
2022-12-03T12:30:13.530Z,11.50
2022-12-03T12:32:50.068Z,13.47
2022-12-03T12:35:20.544Z,12.43
2022-12-03T12:37:59.614Z,11.70
2022-12-03T12:40:30.277Z,12.27
2022-12-03T12:42:58.982Z,13.93
2022-12-03T12:45:31.159Z,12.10
2022-12-03T12:48:00.493Z,12.20
2022-12-03T12:50:26.862Z,13.40
2022-12-03T12:52:58.144Z,11.90
2022-12-03T12:55:24.522Z,13.07
2022-12-03T12:57:51.545Z,13.53
2022-12-03T13:00:20.990Z,13.37
2022-12-03T13:03:00.320Z,12.07
2022-12-03T13:05:38.677Z,12.40
2022-12-03T13:08:30.130Z,10.40
2022-12-03T13:10:58.355Z,12.00
2022-12-03T13:13:43.934Z,12.33
2022-12-03T13:16:26.776Z,12.67
2022-12-03T13:18:55.302Z,14.30
2022-12-03T13:21:29.599Z,11.90
2022-12-03T13:23:57.349Z,12.93
2022-12-03T13:26:36.091Z,11.37
2022-12-03T13:29:14.759Z,11.50
2022-12-03T13:31:46.529Z,12.40
2022-12-03T13:34:18.671Z,12.50
2022-12-03T13:36:47.569Z,12.67
2022-12-03T13:39:27.042Z,11.67
2022-12-03T13:42:11.852Z,13.00
2022-12-03T13:44:46.109Z,12.67
2022-12-03T13:47:20.505Z,10.97
2022-12-03T13:49:53.523Z,11.70
2022-12-03T13:52:24.963Z,11.93
2022-12-03T13:54:54.498Z,11.43
2022-12-03T13:57:20.964Z,11.33
2022-12-03T13:59:47.422Z,11.30
2022-12-03T14:02:13.849Z,12.87
2022-12-03T14:04:40.321Z,12.10
2022-12-03T14:07:06.699Z,11.93
2022-12-03T14:09:33.055Z,12.83
2022-12-03T14:12:17.834Z,12.90
2022-12-03T14:14:44.709Z,11.87
2022-12-03T14:17:11.621Z,12.90
2022-12-03T14:19:38.215Z,11.90
2022-12-03T14:22:07.758Z,11.90
2022-12-03T14:24:34.114Z,11.80
2022-12-03T14:27:00.443Z,12.10
2022-12-03T14:29:26.951Z,11.47
2022-12-03T14:31:53.402Z,11.93
2022-12-03T14:34:19.841Z,13.27
2022-12-03T14:36:46.363Z,11.80
2022-12-03T14:39:12.756Z,12.50
2022-12-03T14:41:57.509Z,12.87
2022-12-03T14:44:23.877Z,12.53
2022-12-03T14:46:56.551Z,12.37
2022-12-03T14:49:23.306Z,11.70
2022-12-03T14:51:49.645Z,12.90
2022-12-03T14:54:16.132Z,11.30
2022-12-03T14:56:42.467Z,12.13
2022-12-03T14:59:08.825Z,11.43
2022-12-03T15:01:35.397Z,12.37
2022-12-03T15:04:02.111Z,12.37
2022-12-03T15:06:28.615Z,12.30
2022-12-03T15:08:54.991Z,12.20
2022-12-03T15:11:21.332Z,11.70
2022-12-03T15:13:47.706Z,11.67
2022-12-03T15:16:14.298Z,10.90
2022-12-03T15:18:40.678Z,11.93
2022-12-03T15:21:06.999Z,12.33
2022-12-03T15:23:33.379Z,11.30
2022-12-03T15:25:59.701Z,10.90
2022-12-03T15:28:26.062Z,10.70
2022-12-03T15:30:52.431Z,11.50
2022-12-03T15:33:19.022Z,11.30
2022-12-03T15:35:45.550Z,12.53
2022-12-03T15:38:12.302Z,13.47
2022-12-03T15:40:38.875Z,12.10
2022-12-03T15:43:06.286Z,11.83
2022-12-03T15:45:32.740Z,12.30
2022-12-03T15:47:59.355Z,12.10
2022-12-03T15:50:25.813Z,23.00
2022-12-03T15:52:52.245Z,27.20
2022-12-03T15:55:18.715Z,21.50
2022-12-03T15:57:45.093Z,21.97
2022-12-03T16:00:13.640Z,14.27
2022-12-03T16:02:40.728Z,13.00
2022-12-03T16:05:10.369Z,14.00
2022-12-03T16:07:37.094Z,12.43
2022-12-03T16:10:04.997Z,13.43
2022-12-03T16:12:31.362Z,12.87
2022-12-03T16:14:57.719Z,13.00
2022-12-03T16:17:24.043Z,11.50
2022-12-03T16:19:50.463Z,11.20
2022-12-03T16:22:16.832Z,12.60
2022-12-03T16:24:43.230Z,12.50
2022-12-03T16:27:10.239Z,12.03
2022-12-03T16:29:36.638Z,11.53
2022-12-03T16:32:03.172Z,10.57
2022-12-03T16:34:29.540Z,9.90
2022-12-03T16:36:55.911Z,11.47
2022-12-03T16:39:22.307Z,10.60
2022-12-03T16:41:48.631Z,10.13
2022-12-03T16:44:31.903Z,10.73
2022-12-03T16:47:00.499Z,10.40
2022-12-03T16:49:27.339Z,10.60
2022-12-03T16:51:53.668Z,11.07
2022-12-03T16:54:20.219Z,9.40
2022-12-03T16:56:46.551Z,9.70
2022-12-03T16:59:13.011Z,11.33
2022-12-03T17:01:39.394Z,11.23
2022-12-03T17:04:05.790Z,12.20
2022-12-03T17:06:32.155Z,12.50
2022-12-03T17:08:58.514Z,10.13
2022-12-03T17:11:24.845Z,11.50
2022-12-03T17:13:51.241Z,10.70
2022-12-03T17:16:17.653Z,11.63
2022-12-03T17:18:44.117Z,11.10
2022-12-03T17:21:10.547Z,11.90
2022-12-03T17:23:36.887Z,11.73
2022-12-03T17:26:03.204Z,10.87
2022-12-03T17:28:29.650Z,10.70
2022-12-03T17:30:56.042Z,13.37
2022-12-03T17:33:22.428Z,11.87
2022-12-03T17:35:48.779Z,12.20
2022-12-03T17:38:15.157Z,12.40
2022-12-03T17:40:41.517Z,11.30
2022-12-03T17:43:07.897Z,12.60
2022-12-03T17:45:34.470Z,11.57
2022-12-03T17:48:00.795Z,11.87
2022-12-03T17:50:27.264Z,13.17
2022-12-03T17:52:53.609Z,12.50
2022-12-03T17:55:29.761Z,11.97
2022-12-03T17:58:03.191Z,11.87
2022-12-03T18:00:29.869Z,11.77
2022-12-03T18:02:56.209Z,13.03
2022-12-03T18:05:23.074Z,12.20
2022-12-03T18:07:50.349Z,12.67
2022-12-03T18:10:17.229Z,11.23
2022-12-03T18:12:43.546Z,12.87
2022-12-03T18:15:10.019Z,13.57
2022-12-03T18:17:36.347Z,13.00
2022-12-03T18:20:03.352Z,13.97
2022-12-03T18:22:30.879Z,12.83
2022-12-03T18:24:57.413Z,12.10
2022-12-03T18:27:24.354Z,12.57
2022-12-03T18:29:50.979Z,12.27
2022-12-03T18:32:28.157Z,12.10
2022-12-03T18:34:56.038Z,12.73
2022-12-03T18:37:25.913Z,12.77
2022-12-03T18:39:52.738Z,14.00
2022-12-03T18:42:22.077Z,12.97
2022-12-03T18:44:50.235Z,11.27
2022-12-03T18:47:19.552Z,13.00
2022-12-03T18:49:46.210Z,15.03
2022-12-03T18:52:14.429Z,14.30
2022-12-03T18:54:40.810Z,12.57
2022-12-03T18:57:07.318Z,13.60
2022-12-03T18:59:33.923Z,13.17
2022-12-03T19:02:00.407Z,13.17
2022-12-03T19:04:26.927Z,12.57
2022-12-03T19:06:53.370Z,14.13
2022-12-03T19:09:19.757Z,12.97
2022-12-03T19:11:46.141Z,11.07
2022-12-03T19:14:12.525Z,12.67
2022-12-03T19:16:40.458Z,11.97
2022-12-03T19:19:09.214Z,12.17
2022-12-03T19:21:36.122Z,13.73
2022-12-03T19:26:54.308Z,16.70
2022-12-03T19:29:23.448Z,18.43
2022-12-03T19:31:53.101Z,16.43
2022-12-03T19:34:20.045Z,17.00
2022-12-03T19:36:47.333Z,17.63
2022-12-03T19:39:13.685Z,17.73
2022-12-03T19:41:41.763Z,19.13
2022-12-03T19:44:11.035Z,18.43
2022-12-03T19:46:37.582Z,19.13
2022-12-03T19:49:04.842Z,17.90
2022-12-03T19:51:35.630Z,18.77
2022-12-03T19:54:03.871Z,19.00
2022-12-03T19:56:30.564Z,18.63
2022-12-03T19:58:57.921Z,17.60
2022-12-03T20:01:30.585Z,18.47
2022-12-03T20:03:59.060Z,16.97
2022-12-03T20:06:28.485Z,18.47
2022-12-03T20:08:59.682Z,16.80
2022-12-03T20:11:29.432Z,17.23
2022-12-03T20:13:58.463Z,16.70
2022-12-03T20:16:25.836Z,17.80
2022-12-03T20:18:56.622Z,18.17
2022-12-03T20:21:23.258Z,16.70
2022-12-03T20:23:49.670Z,19.87
2022-12-03T20:26:18.799Z,17.57
2022-12-03T20:28:45.757Z,16.37
2022-12-03T20:31:15.276Z,16.87
2022-12-03T20:33:44.498Z,19.70
2022-12-03T20:36:12.761Z,17.33
2022-12-03T20:38:39.106Z,17.83
2022-12-03T20:41:08.187Z,17.40
2022-12-03T20:43:35.422Z,17.70
2022-12-03T20:46:09.102Z,18.27
2022-12-03T20:48:35.798Z,17.37
2022-12-03T20:51:07.037Z,16.87
2022-12-03T20:53:34.705Z,19.13
2022-12-03T20:56:01.937Z,18.33
2022-12-03T20:58:29.494Z,17.27
2022-12-03T21:00:56.275Z,18.30
2022-12-03T21:03:22.643Z,17.80
2022-12-03T21:05:49.490Z,17.17
2022-12-03T21:08:15.921Z,18.40
2022-12-03T21:10:45.560Z,19.47
2022-12-03T21:13:16.598Z,19.47
2022-12-03T21:15:44.664Z,18.97
2022-12-03T21:18:13.993Z,19.00
2022-12-03T21:20:41.461Z,18.87
2022-12-03T21:23:08.343Z,18.77
2022-12-03T21:25:36.789Z,19.00
2022-12-03T21:28:09.053Z,19.77
2022-12-03T21:30:39.732Z,18.63
2022-12-03T21:33:06.825Z,18.27
2022-12-03T21:35:37.349Z,19.70
2022-12-03T21:38:03.978Z,18.60
2022-12-03T21:40:30.473Z,19.33
2022-12-03T21:42:56.805Z,19.70
2022-12-03T21:45:24.957Z,20.17
2022-12-03T21:47:51.320Z,18.73
2022-12-03T21:50:17.871Z,21.83
2022-12-03T21:52:44.195Z,21.37
2022-12-03T21:55:10.885Z,20.37
2022-12-03T21:57:37.681Z,19.30
2022-12-03T22:00:07.719Z,17.77
2022-12-03T22:02:34.678Z,17.47
2022-12-03T22:05:01.122Z,19.83
2022-12-03T22:07:27.564Z,19.80
2022-12-03T22:09:54.245Z,18.80
2022-12-03T22:12:20.750Z,18.33
2022-12-03T22:14:47.116Z,19.07
2022-12-03T22:17:13.462Z,20.23
2022-12-03T22:19:40.113Z,19.07
2022-12-03T22:22:06.440Z,20.00
2022-12-03T22:24:32.824Z,19.10
2022-12-03T22:26:59.162Z,19.20
2022-12-03T22:29:25.499Z,18.70
2022-12-03T22:31:52.243Z,19.63
2022-12-03T22:34:18.784Z,20.70
2022-12-03T22:36:45.152Z,19.30
2022-12-03T22:39:11.492Z,20.27
2022-12-03T22:41:37.890Z,20.33
2022-12-03T22:44:04.284Z,17.93
2022-12-03T22:46:30.936Z,18.47
2022-12-03T22:49:00.615Z,19.10
2022-12-03T22:51:31.485Z,20.27
2022-12-03T22:53:59.622Z,22.70
2022-12-03T22:56:27.294Z,19.37
2022-12-03T22:58:54.069Z,19.90
2022-12-03T23:01:25.968Z,21.17
2022-12-03T23:03:52.873Z,21.97
2022-12-03T23:06:19.721Z,20.87
2022-12-03T23:08:46.529Z,22.33
2022-12-03T23:11:13.569Z,21.87
2022-12-03T23:13:39.918Z,22.67
2022-12-03T23:16:07.318Z,20.47
2022-12-03T23:18:33.680Z,21.37
2022-12-03T23:21:00.483Z,21.63
2022-12-03T23:23:27.972Z,20.67
2022-12-03T23:26:09.234Z,20.97
2022-12-03T23:28:38.429Z,22.07
2022-12-03T23:31:05.767Z,21.60
2022-12-03T23:33:37.906Z,22.20
2022-12-03T23:36:06.245Z,22.10
2022-12-03T23:38:32.613Z,20.07
2022-12-03T23:41:11.473Z,23.70
2022-12-03T23:43:38.177Z,23.07
2022-12-03T23:46:07.692Z,24.60
2022-12-03T23:48:34.148Z,21.70
2022-12-03T23:51:05.849Z,21.57
2022-12-03T23:53:32.322Z,23.30
2022-12-03T23:55:58.674Z,22.83
2022-12-03T23:58:25.006Z,23.33
